createdAt,value
2022-11-29T00:01:04.859Z,6.49
2022-11-29T00:03:31.919Z,6.47
2022-11-29T00:06:08.509Z,6.41
2022-11-29T00:08:36.298Z,6.48
2022-11-29T00:11:07.719Z,6.28
2022-11-29T00:13:34.405Z,6.43
2022-11-29T00:16:05.356Z,6.40
2022-11-29T00:18:31.973Z,6.38
2022-11-29T00:20:58.893Z,6.37
2022-11-29T00:23:26.121Z,6.34
2022-11-29T00:25:52.750Z,6.37
2022-11-29T00:28:19.273Z,6.36
2022-11-29T00:30:45.856Z,6.42
2022-11-29T00:33:12.402Z,6.42
2022-11-29T00:35:38.957Z,6.28
2022-11-29T00:38:05.484Z,6.42
2022-11-29T00:40:32.065Z,6.45
2022-11-29T00:42:58.550Z,6.47
2022-11-29T00:45:25.033Z,6.32
2022-11-29T00:47:51.542Z,6.46
2022-11-29T00:50:18.053Z,6.45
2022-11-29T00:52:44.639Z,6.43
2022-11-29T00:55:11.114Z,6.42
2022-11-29T00:57:37.664Z,6.44
2022-11-29T01:00:04.849Z,6.43
2022-11-29T01:02:31.474Z,6.37
2022-11-29T01:04:58.064Z,6.14
2022-11-29T01:07:24.629Z,6.26
2022-11-29T01:09:51.279Z,6.16
2022-11-29T01:12:17.806Z,6.29
2022-11-29T01:14:44.839Z,6.28
2022-11-29T01:17:11.625Z,6.17
2022-11-29T01:19:38.941Z,6.33
2022-11-29T01:22:05.627Z,6.36
2022-11-29T01:24:32.194Z,6.38
2022-11-29T01:26:58.684Z,6.15
2022-11-29T01:29:25.294Z,6.39
2022-11-29T01:31:51.805Z,6.20
2022-11-29T01:34:18.393Z,6.33
2022-11-29T01:36:44.939Z,6.39
2022-11-29T01:39:11.469Z,6.38
2022-11-29T01:41:38.079Z,6.37
2022-11-29T01:44:13.430Z,6.39
2022-11-29T01:46:42.443Z,6.37
2022-11-29T01:49:15.302Z,6.34
2022-11-29T01:51:50.365Z,6.32
2022-11-29T01:54:17.604Z,6.34
2022-11-29T01:56:47.073Z,6.39
2022-11-29T01:59:18.843Z,6.42
2022-11-29T02:01:45.496Z,6.19
2022-11-29T02:04:12.271Z,6.47
2022-11-29T02:06:39.764Z,6.46
2022-11-29T02:09:18.905Z,6.48
2022-11-29T02:12:02.911Z,6.52
2022-11-29T02:14:47.382Z,6.55
2022-11-29T02:17:51.105Z,6.55
2022-11-29T02:20:42.548Z,6.54
2022-11-29T02:23:43.287Z,6.54
2022-11-29T02:26:38.702Z,6.55
2022-11-29T02:29:39.294Z,6.50
2022-11-29T02:32:49.541Z,6.41
2022-11-29T02:35:16.078Z,6.39
2022-11-29T02:38:00.175Z,6.25
2022-11-29T02:40:26.710Z,6.35
2022-11-29T02:43:14.821Z,6.33
2022-11-29T02:46:00.672Z,6.13
2022-11-29T02:48:42.477Z,6.36
2022-11-29T02:51:20.959Z,6.34
2022-11-29T02:53:57.948Z,6.36
2022-11-29T02:56:37.551Z,6.40
2022-11-29T02:59:20.622Z,6.26
2022-11-29T03:02:02.001Z,6.29
2022-11-29T03:04:38.029Z,6.48
2022-11-29T03:07:20.498Z,6.33
2022-11-29T03:10:21.593Z,6.49
2022-11-29T03:12:51.300Z,6.31
2022-11-29T03:15:33.010Z,6.35
2022-11-29T03:18:14.749Z,6.25
2022-11-29T03:20:50.138Z,6.44
2022-11-29T03:23:20.031Z,6.44
2022-11-29T03:25:56.656Z,6.38
2022-11-29T03:28:23.321Z,6.39
2022-11-29T03:31:19.012Z,6.37
2022-11-29T03:34:18.094Z,6.39
2022-11-29T03:36:44.586Z,6.39
2022-11-29T03:39:33.224Z,6.35
2022-11-29T03:42:03.379Z,6.36
2022-11-29T03:45:04.978Z,6.41
2022-11-29T03:47:40.089Z,6.38
2022-11-29T03:50:13.312Z,6.41
2022-11-29T03:52:42.566Z,6.37
2022-11-29T03:55:29.376Z,6.39
2022-11-29T03:58:21.736Z,6.40
2022-11-29T04:00:48.257Z,6.38
2022-11-29T04:03:45.594Z,6.21
2022-11-29T04:06:36.987Z,6.30
2022-11-29T04:09:21.519Z,6.42
2022-11-29T04:12:16.081Z,6.42
2022-11-29T04:15:19.482Z,6.26
2022-11-29T04:18:15.554Z,6.20
2022-11-29T04:21:26.686Z,6.41
2022-11-29T04:24:00.136Z,6.40
2022-11-29T04:26:44.916Z,6.40
2022-11-29T04:29:17.241Z,6.41
2022-11-29T04:32:15.067Z,6.40
2022-11-29T04:35:02.726Z,6.38
2022-11-29T04:38:04.522Z,6.34
2022-11-29T04:40:56.017Z,6.33
2022-11-29T04:43:40.775Z,6.35
2022-11-29T04:46:07.257Z,6.42
2022-11-29T04:48:52.658Z,6.42
2022-11-29T04:51:49.200Z,6.32
2022-11-29T04:54:25.812Z,6.41
2022-11-29T04:57:21.201Z,6.47
2022-11-29T04:59:57.488Z,6.48
2022-11-29T05:02:32.378Z,6.48
2022-11-29T05:05:04.753Z,6.47
2022-11-29T05:07:54.976Z,6.30
2022-11-29T05:10:31.964Z,6.44
2022-11-29T05:13:20.412Z,6.46
2022-11-29T05:16:15.237Z,6.44
2022-11-29T05:18:47.433Z,6.31
2022-11-29T05:21:25.054Z,6.47
2022-11-29T05:24:07.758Z,6.29
2022-11-29T05:26:47.909Z,6.51
2022-11-29T05:29:24.542Z,6.52
2022-11-29T05:32:25.570Z,6.32
2022-11-29T05:35:23.112Z,6.51
2022-11-29T05:37:53.028Z,6.52
2022-11-29T05:40:44.423Z,6.58
2022-11-29T05:43:36.150Z,6.60
2022-11-29T05:46:18.666Z,6.57
2022-11-29T05:49:22.958Z,6.59
2022-11-29T05:52:09.245Z,6.60
2022-11-29T05:54:56.456Z,6.42
2022-11-29T05:57:41.140Z,6.56
2022-11-29T06:00:11.743Z,6.53
2022-11-29T06:02:56.352Z,6.46
2022-11-29T06:05:49.093Z,6.54
2022-11-29T06:08:29.897Z,6.36
2022-11-29T06:11:16.694Z,6.54
2022-11-29T06:14:08.048Z,6.51
2022-11-29T06:16:34.639Z,6.51
2022-11-29T06:19:32.326Z,6.50
2022-11-29T06:22:20.987Z,6.49
2022-11-29T06:25:16.841Z,6.49
2022-11-29T06:27:59.093Z,6.47
2022-11-29T06:31:02.203Z,6.40
2022-11-29T06:33:43.698Z,6.41
2022-11-29T06:36:14.748Z,6.51
2022-11-29T06:38:41.961Z,6.56
2022-11-29T06:41:14.543Z,6.52
2022-11-29T06:43:41.421Z,6.51
2022-11-29T06:46:32.824Z,6.51
2022-11-29T06:49:03.960Z,6.49
2022-11-29T06:51:40.654Z,6.51
2022-11-29T06:54:25.218Z,6.52
2022-11-29T06:57:06.283Z,6.51
2022-11-29T06:59:37.912Z,6.59
2022-11-29T07:02:22.629Z,6.60
2022-11-29T07:05:07.750Z,6.60
2022-11-29T07:07:35.197Z,6.61
2022-11-29T07:10:06.657Z,6.62
2022-11-29T07:12:36.346Z,6.64
2022-11-29T07:15:03.307Z,6.61
2022-11-29T07:17:48.813Z,6.68
2022-11-29T07:20:39.813Z,6.54
2022-11-29T07:23:50.913Z,6.75
2022-11-29T07:26:41.477Z,6.76
2022-11-29T07:29:19.718Z,6.75
2022-11-29T07:32:01.823Z,6.66
2022-11-29T07:34:54.826Z,6.73
2022-11-29T07:37:34.903Z,6.74
2022-11-29T07:40:18.199Z,6.77
2022-11-29T07:42:50.886Z,6.78
2022-11-29T07:45:36.109Z,6.75
2022-11-29T07:48:02.810Z,6.78
2022-11-29T07:50:30.693Z,6.81
2022-11-29T07:52:57.736Z,6.83
2022-11-29T07:55:25.962Z,6.65
2022-11-29T07:57:53.509Z,6.83
2022-11-29T08:00:20.981Z,6.85
2022-11-29T08:02:49.121Z,6.85
2022-11-29T08:05:16.055Z,6.85
2022-11-29T08:07:42.837Z,6.90
2022-11-29T08:10:15.616Z,6.95
2022-11-29T08:12:47.583Z,6.97
2022-11-29T08:15:14.697Z,6.96
2022-11-29T08:17:41.310Z,6.98
2022-11-29T08:20:09.347Z,6.98
2022-11-29T08:22:36.036Z,6.98
2022-11-29T08:25:03.044Z,6.92
2022-11-29T08:27:29.670Z,6.79
2022-11-29T08:29:56.190Z,6.89
2022-11-29T08:32:22.899Z,6.95
2022-11-29T08:34:49.530Z,6.93
2022-11-29T08:37:16.072Z,6.92
2022-11-29T08:39:43.108Z,6.77
2022-11-29T08:42:09.986Z,6.93
2022-11-29T08:44:36.782Z,6.95
2022-11-29T08:47:22.147Z,6.97
2022-11-29T08:50:04.167Z,7.06
2022-11-29T08:52:55.018Z,7.08
2022-11-29T08:55:23.080Z,7.07
2022-11-29T08:57:51.183Z,7.02
2022-11-29T09:00:19.377Z,6.86
2022-11-29T09:02:45.950Z,6.99
2022-11-29T09:05:12.606Z,7.00
2022-11-29T09:07:39.382Z,7.02
2022-11-29T09:10:08.460Z,7.01
2022-11-29T09:12:36.104Z,7.00
2022-11-29T09:15:05.312Z,7.00
2022-11-29T09:17:31.872Z,6.98
2022-11-29T09:19:58.463Z,6.96
2022-11-29T09:22:25.020Z,6.95
2022-11-29T09:24:51.809Z,6.95
2022-11-29T09:27:18.385Z,6.94
2022-11-29T09:29:44.872Z,6.95
2022-11-29T09:32:11.529Z,6.98
2022-11-29T09:34:38.065Z,6.98
2022-11-29T09:37:05.250Z,6.93
2022-11-29T09:39:31.955Z,6.95
2022-11-29T09:42:27.274Z,6.96
2022-11-29T09:45:18.540Z,6.97
2022-11-29T09:48:31.025Z,7.01
2022-11-29T09:51:24.218Z,7.03
2022-11-29T09:54:13.714Z,7.01
2022-11-29T09:56:58.796Z,6.98
2022-11-29T09:59:28.104Z,6.98
2022-11-29T10:02:04.714Z,6.96
2022-11-29T10:04:40.169Z,6.97
2022-11-29T10:07:33.458Z,7.01
2022-11-29T10:10:07.115Z,7.03
2022-11-29T10:12:46.964Z,7.01
2022-11-29T10:15:22.113Z,7.10
2022-11-29T10:17:55.022Z,7.15
2022-11-29T10:20:27.429Z,7.16
2022-11-29T10:23:26.198Z,7.24
2022-11-29T10:25:55.745Z,7.12
2022-11-29T10:28:26.421Z,7.11
2022-11-29T10:30:53.953Z,7.28
2022-11-29T10:33:21.853Z,7.29
2022-11-29T10:35:51.122Z,7.28
2022-11-29T10:38:33.011Z,7.30
2022-11-29T10:41:14.810Z,7.24
2022-11-29T10:43:43.036Z,7.42
2022-11-29T10:46:20.413Z,7.26
2022-11-29T10:48:47.198Z,7.41
2022-11-29T10:51:17.246Z,7.40
2022-11-29T10:53:45.539Z,7.40
2022-11-29T10:56:35.665Z,7.43
2022-11-29T10:59:06.302Z,7.46
2022-11-29T11:01:38.343Z,7.46
2022-11-29T11:04:09.905Z,7.46
2022-11-29T11:06:51.470Z,7.56
2022-11-29T11:09:27.870Z,7.62
2022-11-29T11:11:57.872Z,7.47
2022-11-29T11:14:28.845Z,7.51
2022-11-29T11:16:55.657Z,7.63
2022-11-29T11:19:27.846Z,7.46
2022-11-29T11:22:02.882Z,7.64
2022-11-29T11:24:33.490Z,7.62
2022-11-29T11:27:00.633Z,7.69
2022-11-29T11:29:33.082Z,7.55
2022-11-29T11:32:00.699Z,7.69
2022-11-29T11:34:34.591Z,7.77
2022-11-29T11:37:16.481Z,7.59
2022-11-29T11:39:45.420Z,7.72
2022-11-29T11:42:37.691Z,7.73
2022-11-29T11:45:13.280Z,7.70
2022-11-29T11:47:45.308Z,7.78
2022-11-29T11:50:16.909Z,7.88
2022-11-29T11:52:50.737Z,7.96
2022-11-29T11:55:17.478Z,8.06
2022-11-29T11:57:44.278Z,8.08
2022-11-29T12:03:53.572Z,7.92
2022-11-29T12:06:28.947Z,8.10
2022-11-29T12:09:06.803Z,8.08
2022-11-29T12:12:00.394Z,8.12
2022-11-29T12:15:07.579Z,8.08
2022-11-29T12:17:49.273Z,8.08
2022-11-29T12:20:39.604Z,8.05
2022-11-29T12:23:09.335Z,8.02
2022-11-29T12:25:58.528Z,7.85
2022-11-29T12:28:40.504Z,7.93
2022-11-29T12:31:25.600Z,7.99
2022-11-29T12:34:22.231Z,8.01
2022-11-29T12:37:08.019Z,8.08
2022-11-29T12:39:46.250Z,8.10
2022-11-29T12:42:41.676Z,8.10
2022-11-29T12:45:18.318Z,8.10
2022-11-29T12:48:13.631Z,8.07
2022-11-29T12:51:04.876Z,8.11
2022-11-29T12:53:43.480Z,8.06
2022-11-29T12:56:34.674Z,7.99
2022-11-29T12:59:16.552Z,8.20
2022-11-29T13:01:58.287Z,8.22
2022-11-29T13:04:38.170Z,8.20
2022-11-29T13:07:12.988Z,8.19
2022-11-29T13:09:57.013Z,8.18
2022-11-29T13:12:39.732Z,8.14
2022-11-29T13:15:06.398Z,8.12
2022-11-29T13:17:41.273Z,8.13
2022-11-29T13:20:25.312Z,8.20
2022-11-29T13:22:55.050Z,8.23
2022-11-29T13:25:28.063Z,8.24
2022-11-29T13:27:58.715Z,8.21
2022-11-29T13:30:26.088Z,8.22
2022-11-29T13:33:25.091Z,8.22
2022-11-29T13:36:00.598Z,8.24
2022-11-29T13:38:36.001Z,8.21
2022-11-29T13:41:28.279Z,8.17
2022-11-29T13:44:02.830Z,8.20
2022-11-29T13:46:41.224Z,8.20
2022-11-29T13:49:23.717Z,8.14
2022-11-29T13:52:04.931Z,8.21
2022-11-29T13:54:34.073Z,8.09
2022-11-29T13:57:10.364Z,8.14
2022-11-29T13:59:45.766Z,8.13
2022-11-29T14:02:32.025Z,8.10
2022-11-29T14:04:58.836Z,7.96
2022-11-29T14:07:25.508Z,7.97
2022-11-29T14:10:01.301Z,8.12
2022-11-29T14:12:35.867Z,7.95
2022-11-29T14:15:14.449Z,8.09
2022-11-29T14:17:53.500Z,8.08
2022-11-29T14:20:28.129Z,8.10
2022-11-29T14:23:07.662Z,8.06
2022-11-29T14:25:52.623Z,8.08
2022-11-29T14:28:22.459Z,8.13
2022-11-29T14:30:49.894Z,8.02
2022-11-29T14:33:47.509Z,8.18
2022-11-29T14:36:30.004Z,8.14
2022-11-29T14:39:30.536Z,8.14
2022-11-29T14:42:16.923Z,8.09
2022-11-29T14:44:56.013Z,8.06
2022-11-29T14:47:31.439Z,7.91
2022-11-29T14:50:01.151Z,8.05
2022-11-29T14:52:31.637Z,8.03
2022-11-29T14:55:29.716Z,8.00
2022-11-29T14:58:06.155Z,7.97
2022-11-29T15:00:37.754Z,7.93
2022-11-29T15:03:16.738Z,7.91
2022-11-29T15:05:48.757Z,7.91
2022-11-29T15:08:37.271Z,7.93
2022-11-29T15:11:27.497Z,7.91
2022-11-29T15:14:23.217Z,7.91
2022-11-29T15:16:58.511Z,7.90
2022-11-29T15:19:27.965Z,7.88
2022-11-29T15:22:21.110Z,7.83
2022-11-29T15:24:54.607Z,7.66
2022-11-29T15:27:22.077Z,7.74
2022-11-29T15:29:48.706Z,7.67
2022-11-29T15:32:26.398Z,7.67
2022-11-29T15:34:55.561Z,7.66
2022-11-29T15:37:26.226Z,7.63
2022-11-29T15:40:03.495Z,7.60
2022-11-29T15:42:41.874Z,7.54
2022-11-29T15:45:36.843Z,7.51
2022-11-29T15:48:24.254Z,7.52
2022-11-29T15:51:16.014Z,7.50
2022-11-29T15:54:12.874Z,7.46
2022-11-29T15:56:51.953Z,7.48
2022-11-29T15:59:30.470Z,7.47
2022-11-29T16:02:00.317Z,7.45
2022-11-29T16:04:27.252Z,7.46
2022-11-29T16:06:55.439Z,7.47
2022-11-29T16:09:43.491Z,7.48
2022-11-29T16:12:14.158Z,7.46
2022-11-29T16:14:56.890Z,7.46
2022-11-29T16:17:41.469Z,7.41
2022-11-29T16:20:13.769Z,7.37
2022-11-29T16:22:40.411Z,7.44
2022-11-29T16:25:16.157Z,7.40
2022-11-29T16:27:43.214Z,7.44
2022-11-29T16:30:24.726Z,7.28
2022-11-29T16:33:00.229Z,7.46
2022-11-29T16:35:29.384Z,7.47
2022-11-29T16:37:56.324Z,7.45
2022-11-29T16:40:27.178Z,7.50
2022-11-29T16:43:23.620Z,7.49
2022-11-29T16:46:30.276Z,7.53
2022-11-29T16:48:59.003Z,7.54
2022-11-29T16:51:39.898Z,7.51
2022-11-29T16:54:22.192Z,7.53
2022-11-29T16:56:50.435Z,7.51
2022-11-29T16:59:26.738Z,7.54
2022-11-29T17:01:55.099Z,7.55
2022-11-29T17:04:24.836Z,7.58
2022-11-29T17:06:56.132Z,7.59
2022-11-29T17:09:28.369Z,7.53
2022-11-29T17:11:56.175Z,7.54
2022-11-29T17:14:23.119Z,7.54
2022-11-29T17:16:49.814Z,7.50
2022-11-29T17:19:17.269Z,7.47
2022-11-29T17:21:44.190Z,7.43
2022-11-29T17:24:13.973Z,7.37
2022-11-29T17:26:41.545Z,7.39
2022-11-29T17:29:10.376Z,7.40
2022-11-29T17:31:37.062Z,7.40
2022-11-29T17:34:04.254Z,7.38
2022-11-29T17:36:31.357Z,7.37
2022-11-29T17:39:01.845Z,7.20
2022-11-29T17:41:29.437Z,7.33
2022-11-29T17:43:57.368Z,7.36
2022-11-29T17:46:27.097Z,7.37
2022-11-29T17:48:54.924Z,7.34
2022-11-29T17:54:11.107Z,7.35
2022-11-29T17:56:37.934Z,7.38
2022-11-29T17:59:05.334Z,7.38
2022-11-29T18:01:34.651Z,7.43
2022-11-29T18:04:03.137Z,7.43
2022-11-29T18:06:35.883Z,7.46
2022-11-29T18:09:04.325Z,7.47
2022-11-29T18:11:41.664Z,7.32
2022-11-29T18:14:15.411Z,7.44
2022-11-29T18:16:42.391Z,7.42
2022-11-29T18:19:12.771Z,7.42
2022-11-29T18:21:39.672Z,7.39
2022-11-29T18:24:07.148Z,7.26
2022-11-29T18:26:35.189Z,7.30
2022-11-29T18:29:02.157Z,7.42
2022-11-29T18:31:31.463Z,7.43
2022-11-29T18:34:00.352Z,7.42
2022-11-29T18:36:29.981Z,7.42
2022-11-29T18:39:01.615Z,7.50
2022-11-29T18:41:29.920Z,7.48
2022-11-29T18:44:07.200Z,7.47
2022-11-29T18:46:36.554Z,7.44
2022-11-29T18:49:05.909Z,7.33
2022-11-29T18:51:33.527Z,7.44
2022-11-29T18:54:01.032Z,7.44
2022-11-29T18:56:30.141Z,7.41
2022-11-29T18:59:02.037Z,7.32
2022-11-29T19:01:30.761Z,7.18
2022-11-29T19:03:59.447Z,7.34
2022-11-29T19:06:38.602Z,7.32
2022-11-29T19:09:07.957Z,7.31
2022-11-29T19:11:34.954Z,7.31
2022-11-29T19:14:04.797Z,7.27
2022-11-29T19:16:33.224Z,7.24
2022-11-29T19:19:01.110Z,7.27
2022-11-29T19:21:29.904Z,7.13
2022-11-29T19:23:58.833Z,7.24
2022-11-29T19:26:27.193Z,7.21
2022-11-29T19:28:54.096Z,7.17
2022-11-29T19:31:24.809Z,7.17
2022-11-29T19:33:52.635Z,7.17
2022-11-29T19:36:23.516Z,6.99
2022-11-29T19:38:53.915Z,7.15
2022-11-29T19:41:26.640Z,7.17
2022-11-29T19:43:54.051Z,7.18
2022-11-29T19:46:23.464Z,7.19
2022-11-29T19:48:53.159Z,7.05
2022-11-29T19:51:21.082Z,7.30
2022-11-29T19:53:47.695Z,7.30
2022-11-29T19:56:17.127Z,7.26
2022-11-29T19:58:44.483Z,7.26
2022-11-29T20:01:18.713Z,7.26
2022-11-29T20:03:45.623Z,7.28
2022-11-29T20:06:13.725Z,7.30
2022-11-29T20:08:41.111Z,7.30
2022-11-29T20:11:15.778Z,7.25
2022-11-29T20:13:44.009Z,7.25
2022-11-29T20:16:17.142Z,7.24
2022-11-29T20:18:50.417Z,6.99
2022-11-29T20:21:18.699Z,7.21
2022-11-29T20:23:45.223Z,7.11
2022-11-29T20:26:17.734Z,7.21
2022-11-29T20:28:45.070Z,7.20
2022-11-29T20:31:15.387Z,7.18
2022-11-29T20:33:43.427Z,7.13
2022-11-29T20:36:29.133Z,7.15
2022-11-29T20:39:05.757Z,7.11
2022-11-29T20:41:48.327Z,7.11
2022-11-29T20:44:20.467Z,7.03
2022-11-29T20:46:47.264Z,7.18
2022-11-29T20:49:15.167Z,7.06
2022-11-29T20:51:51.478Z,7.17
2022-11-29T20:54:19.427Z,7.19
2022-11-29T20:56:45.965Z,7.19
2022-11-29T20:59:12.497Z,7.19
2022-11-29T21:01:39.193Z,7.15
2022-11-29T21:04:05.826Z,7.14
2022-11-29T21:06:36.117Z,7.14
2022-11-29T21:09:02.891Z,7.15
2022-11-29T21:11:29.818Z,7.14
2022-11-29T21:13:57.145Z,7.15
2022-11-29T21:16:28.393Z,7.15
2022-11-29T21:18:58.440Z,7.16
2022-11-29T21:21:33.330Z,7.19
2022-11-29T21:24:06.743Z,7.21
2022-11-29T21:26:41.981Z,7.18
2022-11-29T21:29:17.316Z,7.15
2022-11-29T21:31:45.613Z,6.99
2022-11-29T21:34:12.367Z,7.05
2022-11-29T21:36:39.549Z,7.07
2022-11-29T21:39:07.784Z,7.04
2022-11-29T21:41:34.474Z,7.03
2022-11-29T21:44:08.726Z,7.02
2022-11-29T21:46:35.882Z,7.02
2022-11-29T21:49:02.612Z,6.84
2022-11-29T21:51:29.212Z,6.84
2022-11-29T21:53:55.916Z,7.00
2022-11-29T21:56:22.543Z,6.98
2022-11-29T21:58:49.091Z,7.00
2022-11-29T22:01:18.488Z,7.04
2022-11-29T22:03:45.796Z,6.91
2022-11-29T22:06:14.998Z,7.04
2022-11-29T22:08:42.263Z,7.00
2022-11-29T22:11:11.787Z,6.99
2022-11-29T22:13:59.910Z,6.97
2022-11-29T22:16:26.870Z,6.91
2022-11-29T22:18:53.704Z,6.91
2022-11-29T22:21:20.826Z,6.88
2022-11-29T22:23:48.152Z,6.89
2022-11-29T22:26:14.660Z,6.85
2022-11-29T22:28:41.170Z,6.85
2022-11-29T22:31:12.551Z,6.84
2022-11-29T22:33:39.714Z,6.81
2022-11-29T22:36:08.968Z,6.78
2022-11-29T22:38:35.817Z,6.75
2022-11-29T22:41:04.722Z,6.78
2022-11-29T22:43:32.127Z,6.85
2022-11-29T22:46:05.694Z,6.86
2022-11-29T22:48:38.182Z,6.88
2022-11-29T22:51:12.795Z,6.89
2022-11-29T22:53:41.577Z,6.87
2022-11-29T22:56:11.039Z,6.82
2022-11-29T22:58:38.117Z,6.78
2022-11-29T23:01:14.819Z,6.84
2022-11-29T23:03:48.177Z,6.83
2022-11-29T23:06:17.858Z,6.90
2022-11-29T23:08:45.836Z,6.96
2022-11-29T23:11:15.794Z,7.00
2022-11-29T23:13:43.871Z,6.86
2022-11-29T23:16:13.284Z,6.88
2022-11-29T23:18:42.238Z,6.91
2022-11-29T23:21:11.885Z,6.96
2022-11-29T23:23:38.725Z,7.02
2022-11-29T23:26:06.801Z,7.04
2022-11-29T23:28:34.711Z,7.03
2022-11-29T23:31:01.946Z,7.02
2022-11-29T23:33:28.642Z,7.01
2022-11-29T23:36:03.037Z,7.04
2022-11-29T23:38:30.131Z,7.04
2022-11-29T23:40:56.991Z,7.02
2022-11-29T23:43:23.673Z,7.00
2022-11-29T23:45:50.685Z,6.97
2022-11-29T23:48:17.492Z,7.02
2022-11-29T23:50:44.010Z,7.03
2022-11-29T23:53:15.318Z,6.94
2022-11-29T23:55:42.327Z,7.09
2022-11-29T23:58:10.183Z,7.12
